createdAt,value
2022-09-10T08:02:22.753Z,99.99
2022-09-10T08:03:01.335Z,99.99
2022-09-10T08:04:03.042Z,99.99
2022-09-10T08:05:01.155Z,99.99
2022-09-10T08:06:02.626Z,99.99
2022-09-10T08:07:01.105Z,99.99
2022-09-10T08:08:01.893Z,99.99
2022-09-10T08:09:01.480Z,99.99
2022-09-10T08:10:01.193Z,99.99
2022-09-10T08:11:01.125Z,99.99
2022-09-10T08:12:01.249Z,99.99
2022-09-10T08:13:01.120Z,99.99
2022-09-10T08:14:01.830Z,99.99
2022-09-10T08:15:01.211Z,99.99
2022-09-10T08:16:02.502Z,99.99
2022-09-10T08:17:01.799Z,99.99
2022-09-10T08:18:00.997Z,99.99
2022-09-10T08:19:01.030Z,99.99
2022-09-10T08:20:00.960Z,99.99
2022-09-10T08:21:00.987Z,99.99
2022-09-10T08:22:01.831Z,99.99
2022-09-10T08:23:00.985Z,99.99
2022-09-10T08:24:00.939Z,99.99
2022-09-10T08:25:01.803Z,99.99
2022-09-10T08:26:01.033Z,99.99
2022-09-10T08:27:00.839Z,99.99
2022-09-10T08:28:00.880Z,99.99
2022-09-10T08:29:00.852Z,99.99
2022-09-10T08:30:01.573Z,99.99
2022-09-10T08:31:00.921Z,99.99
2022-09-10T08:32:00.933Z,99.99
2022-09-10T08:33:00.773Z,99.99
2022-09-10T08:34:00.831Z,99.99
2022-09-10T08:35:00.755Z,99.99
2022-09-10T08:36:00.833Z,99.99
2022-09-10T08:37:00.748Z,99.99
2022-09-10T08:38:01.584Z,99.99
2022-09-10T08:39:04.017Z,99.99
2022-09-10T08:40:02.471Z,99.99
2022-09-10T08:41:00.624Z,99.99
2022-09-10T08:42:01.246Z,99.99
2022-09-10T08:43:00.727Z,99.99
2022-09-10T08:44:00.808Z,99.99
2022-09-10T08:45:00.737Z,99.99
2022-09-10T08:46:00.821Z,99.99
2022-09-10T08:47:00.659Z,99.99
2022-09-10T08:48:00.578Z,99.99
2022-09-10T08:49:00.580Z,99.99
2022-09-10T08:50:00.579Z,99.99
2022-09-10T08:51:00.479Z,99.99
2022-09-10T08:52:00.698Z,99.99
2022-09-10T08:53:00.989Z,99.99
2022-09-10T08:54:00.503Z,99.99
2022-09-10T08:55:00.439Z,99.99
2022-09-10T08:56:00.669Z,99.99
2022-09-10T08:57:00.641Z,99.99
2022-09-10T08:58:00.667Z,99.99
2022-09-10T08:59:00.484Z,99.99
2022-09-10T09:00:00.465Z,99.99
2022-09-10T09:01:00.403Z,99.99
2022-09-10T09:02:00.513Z,99.99
2022-09-10T09:03:00.509Z,99.99
2022-09-10T09:04:06.046Z,99.99
2022-09-10T09:05:00.337Z,99.99
2022-09-10T09:06:00.308Z,99.99
2022-09-10T09:07:00.434Z,99.99
2022-09-10T09:08:01.027Z,99.99
2022-09-10T09:09:00.277Z,99.99
2022-09-10T09:10:00.448Z,99.99
2022-09-10T09:11:00.215Z,99.99
2022-09-10T09:12:00.201Z,99.99
2022-09-10T09:13:01.028Z,99.99
2022-09-10T09:14:00.241Z,99.99
2022-09-10T09:15:00.179Z,99.99
2022-09-10T09:16:00.225Z,99.99
2022-09-10T09:17:00.127Z,99.99
2022-09-10T09:18:00.099Z,99.99
2022-09-10T09:19:00.108Z,99.99
2022-09-10T09:20:00.872Z,99.99
2022-09-10T09:21:00.101Z,99.99
2022-09-10T09:22:00.151Z,99.99
2022-09-10T09:23:00.051Z,99.99
2022-09-10T09:24:13.303Z,99.99
2022-09-10T09:25:01.061Z,99.99
2022-09-10T09:26:00.022Z,99.99
2022-09-10T09:26:59.992Z,99.99
2022-09-10T09:28:00.034Z,99.99
2022-09-10T09:28:59.973Z,99.99
2022-09-10T09:30:00.059Z,99.99
2022-09-10T09:31:00.152Z,99.99
2022-09-10T09:32:00.487Z,99.99
2022-09-10T09:33:00.941Z,99.99
2022-09-10T09:34:00.808Z,99.99
2022-09-10T09:35:00.707Z,99.99
2022-09-10T09:35:59.868Z,99.99
2022-09-10T09:36:59.926Z,99.99
2022-09-10T09:38:00.718Z,99.99
2022-09-10T09:38:59.863Z,99.99
2022-09-10T09:40:00.625Z,99.99
2022-09-10T09:40:59.893Z,99.99
2022-09-10T09:41:59.799Z,99.99
2022-09-10T09:42:59.801Z,99.99
2022-09-10T09:43:59.829Z,99.99
2022-09-10T09:45:00.517Z,99.99
2022-09-10T09:46:00.023Z,99.99
2022-09-10T09:46:59.691Z,99.99
2022-09-10T09:47:59.742Z,99.99
2022-09-10T09:48:59.914Z,99.99
2022-09-10T09:50:00.561Z,99.99
2022-09-10T09:50:59.670Z,99.99
2022-09-10T09:52:00.613Z,99.99
2022-09-10T09:52:59.605Z,99.99
2022-09-10T09:54:34.604Z,99.99
2022-09-10T09:55:14.178Z,99.99
2022-09-10T09:56:00.774Z,99.99
2022-09-10T09:56:59.660Z,99.99
2022-09-10T09:57:59.564Z,99.99
2022-09-10T09:58:59.586Z,99.99
2022-09-10T09:59:59.660Z,99.99
2022-09-10T10:01:00.012Z,99.99
2022-09-10T10:01:59.646Z,99.99
2022-09-10T10:02:59.586Z,99.99
2022-09-10T10:03:59.532Z,99.99
2022-09-10T10:04:59.506Z,99.99
2022-09-10T10:05:59.469Z,99.99
2022-09-10T10:06:59.427Z,99.99
2022-09-10T10:07:59.409Z,99.99
2022-09-10T10:08:59.491Z,99.99
2022-09-10T10:09:59.653Z,99.99
2022-09-10T10:10:59.380Z,99.99
2022-09-10T10:12:00.260Z,99.99
2022-09-10T10:13:00.434Z,99.99
2022-09-10T10:14:00.348Z,99.99
2022-09-10T10:15:01.126Z,99.99
2022-09-10T10:15:59.487Z,99.99
2022-09-10T10:17:00.885Z,99.99
2022-09-10T10:17:59.275Z,99.99
2022-09-10T10:18:59.273Z,99.99
2022-09-10T10:19:59.272Z,99.99
2022-09-10T10:20:59.274Z,99.99
2022-09-10T10:21:59.274Z,99.99
2022-09-10T10:22:59.234Z,98.51
2022-09-10T10:23:59.195Z,99.99
2022-09-10T10:25:00.007Z,99.99
2022-09-10T10:25:59.268Z,99.99
2022-09-10T10:26:59.574Z,99.99
2022-09-10T10:27:59.977Z,99.99
2022-09-10T10:28:59.174Z,99.99
2022-09-10T10:30:00.037Z,99.99
2022-09-10T10:30:59.217Z,99.99
2022-09-10T10:32:01.585Z,99.42
2022-09-10T10:33:00.374Z,99.82
2022-09-10T10:33:59.158Z,99.12
2022-09-10T10:34:59.155Z,99.62
2022-09-10T10:35:59.244Z,99.57
2022-09-10T10:36:59.217Z,97.72
2022-09-10T10:37:59.115Z,97.11
2022-09-10T10:38:59.101Z,96.61
2022-09-10T10:39:59.883Z,94.71
2022-09-10T10:40:59.752Z,97.31
2022-09-10T10:41:59.940Z,98.37
2022-09-10T10:42:59.875Z,99.99
2022-09-10T10:43:59.483Z,99.99
2022-09-10T10:44:59.012Z,99.99
2022-09-10T10:45:58.912Z,99.43
2022-09-10T10:46:59.738Z,97.03
2022-09-10T10:47:58.914Z,95.53
2022-09-10T10:49:03.702Z,97.13
2022-09-10T10:49:59.661Z,95.68
2022-09-10T10:50:59.816Z,89.02
2022-09-10T10:51:59.718Z,87.87
2022-09-10T10:52:59.624Z,87.27
2022-09-10T10:53:59.528Z,91.58
2022-09-10T10:54:58.807Z,93.98
2022-09-10T10:55:59.291Z,94.34
2022-09-10T10:56:59.514Z,91.19
2022-09-10T10:57:59.650Z,93.19
2022-09-10T10:58:59.440Z,91.05
2022-09-10T10:59:58.690Z,88.75
2022-09-10T11:00:59.641Z,87.65
2022-09-10T11:01:59.076Z,88.45
2022-09-10T11:02:59.431Z,92.40
2022-09-10T11:03:58.632Z,89.86
2022-09-10T11:04:58.713Z,91.22
2022-09-10T11:05:59.451Z,91.57
2022-09-10T11:06:58.701Z,85.44
2022-09-10T11:07:59.480Z,88.70
2022-09-10T11:08:59.841Z,89.05
2022-09-10T11:09:59.601Z,87.76
2022-09-10T11:10:59.436Z,89.70
2022-09-10T11:11:59.104Z,88.87
2022-09-10T11:12:59.616Z,88.23
2022-09-10T11:13:59.458Z,85.94
2022-09-10T11:14:59.348Z,87.09
2022-09-10T11:15:59.652Z,83.95
2022-09-10T11:16:59.096Z,82.04
2022-09-10T11:17:58.560Z,84.97
2022-09-10T11:18:58.429Z,85.90
2022-09-10T11:20:17.659Z,80.26
2022-09-10T11:20:59.419Z,86.19
2022-09-10T11:21:58.371Z,85.85
2022-09-10T11:22:59.304Z,86.54
2022-09-10T11:23:58.366Z,86.90
2022-09-10T11:24:59.114Z,85.60
2022-09-10T11:25:59.277Z,83.87
2022-09-10T11:26:59.172Z,84.86
2022-09-10T11:27:58.911Z,82.04
2022-09-10T11:28:59.249Z,78.22
2022-09-10T11:29:59.169Z,77.95
2022-09-10T11:30:58.307Z,75.07
2022-09-10T11:31:59.206Z,80.58
2022-09-10T11:32:59.117Z,76.93
2022-09-10T11:33:58.218Z,75.54
2022-09-10T11:34:59.179Z,83.91
2022-09-10T11:35:59.081Z,83.55
2022-09-10T11:36:58.176Z,84.84
2022-09-10T11:37:59.145Z,85.74
2022-09-10T11:38:59.048Z,86.04
2022-09-10T11:39:58.168Z,87.54
2022-09-10T11:40:58.147Z,78.11
2022-09-10T11:41:59.060Z,75.51
2022-09-10T11:42:58.918Z,83.19
2022-09-10T11:43:58.099Z,88.64
2022-09-10T11:44:58.985Z,84.35
2022-09-10T11:45:58.096Z,83.11
2022-09-10T11:46:58.795Z,82.92
2022-09-10T11:47:58.960Z,83.07
2022-09-10T11:48:58.850Z,83.17
2022-09-10T11:49:58.762Z,82.54
2022-09-10T11:50:57.980Z,82.10
2022-09-10T11:51:58.825Z,79.37
2022-09-10T11:52:57.998Z,79.37
2022-09-10T11:53:58.885Z,77.48
2022-09-10T11:54:58.785Z,82.12
2022-09-10T11:55:58.694Z,79.20
2022-09-10T11:56:57.971Z,75.12
2022-09-10T11:57:58.758Z,79.88
2022-09-10T11:58:57.914Z,73.78
2022-09-10T11:59:58.379Z,71.53
2022-09-10T12:00:57.893Z,67.32
2022-09-10T12:01:57.862Z,71.50
2022-09-10T12:02:58.798Z,71.42
2022-09-10T12:03:58.002Z,67.71
2022-09-10T12:04:58.624Z,64.13
2022-09-10T12:05:57.889Z,61.93
2022-09-10T12:06:57.888Z,65.55
2022-09-10T12:07:57.755Z,60.79
2022-09-10T12:08:58.729Z,60.73
2022-09-10T12:09:57.742Z,63.45
2022-09-10T12:10:58.533Z,60.35
2022-09-10T12:11:58.733Z,62.38
2022-09-10T12:12:57.734Z,63.04
2022-09-10T12:13:57.691Z,57.91
2022-09-10T12:14:57.783Z,57.68
2022-09-10T12:15:57.882Z,56.71
2022-09-10T12:16:57.624Z,58.64
2022-09-10T12:17:57.891Z,56.65
2022-09-10T12:18:57.742Z,58.12
2022-09-10T12:19:57.621Z,55.57
2022-09-10T12:20:57.586Z,53.72
2022-09-10T12:21:57.556Z,56.19
2022-09-10T12:22:57.559Z,56.68
2022-09-10T12:23:58.310Z,55.63
2022-09-10T12:24:58.468Z,56.72
2022-09-10T12:25:57.547Z,55.22
2022-09-10T12:26:57.508Z,54.17
2022-09-10T12:27:57.490Z,59.05
2022-09-10T12:28:57.529Z,59.01
2022-09-10T12:29:58.930Z,57.81
2022-09-10T12:30:57.624Z,55.32
2022-09-10T12:31:57.433Z,58.80
2022-09-10T12:32:58.213Z,62.20
2022-09-10T12:33:58.376Z,59.65
2022-09-10T12:34:58.316Z,60.08
2022-09-10T12:35:57.414Z,58.92
2022-09-10T12:36:57.397Z,56.27
2022-09-10T12:37:57.364Z,58.65
2022-09-10T12:38:58.146Z,54.90
2022-09-10T12:39:58.332Z,57.62
2022-09-10T12:40:57.761Z,55.24
2022-09-10T12:41:58.118Z,56.21
2022-09-10T12:42:58.275Z,56.15
2022-09-10T12:43:58.197Z,54.31
2022-09-10T12:44:58.089Z,58.97
2022-09-10T12:45:58.262Z,56.98
2022-09-10T12:46:57.489Z,55.12
2022-09-10T12:47:57.502Z,54.29
2022-09-10T12:48:57.499Z,59.34
2022-09-10T12:49:57.460Z,59.11
2022-09-10T12:50:57.422Z,54.55
2022-09-10T12:51:58.179Z,55.38
2022-09-10T12:52:58.086Z,59.05
2022-09-10T12:53:57.990Z,56.67
2022-09-10T12:54:57.892Z,58.60
2022-09-10T12:55:57.111Z,59.84
2022-09-10T12:56:57.962Z,56.92
2022-09-10T12:57:57.865Z,56.43
2022-09-10T12:58:57.090Z,58.54
2022-09-10T12:59:57.925Z,57.26
2022-09-10T13:00:57.528Z,55.73
2022-09-10T13:01:58.060Z,55.11
2022-09-10T13:02:57.895Z,57.15
2022-09-10T13:03:57.810Z,55.85
2022-09-10T13:04:57.965Z,54.25
2022-09-10T13:05:57.878Z,55.87
2022-09-10T13:06:57.767Z,65.04
2022-09-10T13:07:57.018Z,63.45
2022-09-10T13:08:57.829Z,65.69
2022-09-10T13:09:56.920Z,67.84
2022-09-10T13:10:57.121Z,67.31
2022-09-10T13:11:56.910Z,67.37
2022-09-10T13:12:57.700Z,71.28
2022-09-10T13:14:00.313Z,70.75
2022-09-10T13:14:56.852Z,70.79
2022-09-10T13:15:56.867Z,73.71
2022-09-10T13:16:56.863Z,74.74
2022-09-10T13:17:57.734Z,76.24
2022-09-10T13:18:57.200Z,76.57
2022-09-10T13:19:57.605Z,75.97
2022-09-10T13:20:57.474Z,77.70
2022-09-10T13:21:56.833Z,78.11
2022-09-10T13:22:57.529Z,76.41
2022-09-10T13:23:57.480Z,76.21
2022-09-10T13:24:56.715Z,75.61
2022-09-10T13:25:56.699Z,75.85
2022-09-10T13:26:57.668Z,75.81
2022-09-10T13:27:57.546Z,76.91
2022-09-10T13:28:57.448Z,77.64
2022-09-10T13:29:56.648Z,78.04
2022-09-10T13:30:57.557Z,80.83
2022-09-10T13:31:57.008Z,77.78
2022-09-10T13:32:57.605Z,78.61
2022-09-10T13:33:56.650Z,79.02
2022-09-10T13:34:57.383Z,79.96
2022-09-10T13:35:56.560Z,79.99
2022-09-10T13:36:57.461Z,80.89
2022-09-10T13:37:57.353Z,82.23
2022-09-10T13:39:00.856Z,79.53
2022-09-10T13:39:58.467Z,81.83
2022-09-10T13:40:56.493Z,81.87
2022-09-10T13:41:57.484Z,81.17
2022-09-10T13:42:56.466Z,83.21
2022-09-10T13:44:00.584Z,82.91
2022-09-10T13:44:56.458Z,82.31
2022-09-10T13:45:56.449Z,84.85
2022-09-10T13:46:56.424Z,81.65
2022-09-10T13:47:56.386Z,82.39
2022-09-10T13:48:57.316Z,81.79
2022-09-10T13:49:56.401Z,83.69
2022-09-10T13:50:56.358Z,84.09
2022-09-10T13:51:56.357Z,85.10
2022-09-10T13:52:57.219Z,85.39
2022-09-10T13:53:57.098Z,86.19
2022-09-10T13:54:57.288Z,85.80
2022-09-10T13:55:57.198Z,85.19
2022-09-10T13:56:57.058Z,85.30
2022-09-10T13:57:56.269Z,85.99
2022-09-10T13:58:57.156Z,84.49
2022-09-10T13:59:56.229Z,84.69
2022-09-10T14:00:57.190Z,83.89
2022-09-10T14:01:56.249Z,82.79
2022-09-10T14:02:56.247Z,84.29
2022-09-10T14:03:57.161Z,83.19
2022-09-10T14:04:56.201Z,83.29
2022-09-10T14:05:56.972Z,83.39
2022-09-10T14:06:57.125Z,83.09
2022-09-10T14:07:56.133Z,83.15
2022-09-10T14:08:56.120Z,81.85
2022-09-10T14:09:56.084Z,82.65
2022-09-10T14:10:56.995Z,84.15
2022-09-10T14:11:58.037Z,82.55
2022-09-10T14:12:56.804Z,82.05
2022-09-10T14:13:56.964Z,84.21
2022-09-10T14:14:56.875Z,82.81
2022-09-10T14:15:56.847Z,82.31
2022-09-10T14:16:56.936Z,83.01
2022-09-10T14:17:56.838Z,83.27
2022-09-10T14:18:57.442Z,82.97
2022-09-10T14:19:56.897Z,83.27
2022-09-10T14:20:55.950Z,82.93
2022-09-10T14:21:56.447Z,82.23
2022-09-10T14:22:55.939Z,81.63
2022-09-10T14:23:57.410Z,80.29
2022-09-10T14:24:56.682Z,80.69
2022-09-10T14:25:56.840Z,79.96
2022-09-10T14:26:55.862Z,78.75
2022-09-10T14:27:56.641Z,77.92
2022-09-10T14:28:56.817Z,78.42
2022-09-10T14:29:55.953Z,76.58
2022-09-10T14:30:56.651Z,77.68
2022-09-10T14:31:56.773Z,76.95
2022-09-10T14:32:56.675Z,77.74
2022-09-10T14:33:56.583Z,74.75
2022-09-10T14:34:56.191Z,75.15
2022-09-10T14:35:56.644Z,74.21
2022-09-10T14:36:56.551Z,73.75
2022-09-10T14:37:56.727Z,76.04
2022-09-10T14:38:55.678Z,76.54
2022-09-10T14:39:55.687Z,76.54
2022-09-10T14:40:55.675Z,78.84
2022-09-10T14:41:56.585Z,79.74
2022-09-10T14:42:56.517Z,78.14
2022-09-10T14:43:55.607Z,77.64
2022-09-10T14:44:55.596Z,76.88
2022-09-10T14:45:56.486Z,77.38
2022-09-10T14:46:55.576Z,78.94
2022-09-10T14:47:55.585Z,78.24
2022-09-10T14:48:55.538Z,78.94
2022-09-10T14:49:56.328Z,73.95
2022-09-10T14:50:56.488Z,74.85
2022-09-10T14:51:56.390Z,75.25
2022-09-10T14:52:56.290Z,74.35
2022-09-10T14:53:56.423Z,76.31
2022-09-10T14:54:55.471Z,75.71
2022-09-10T14:55:55.450Z,73.91
2022-09-10T14:56:56.431Z,73.82
2022-09-10T14:57:56.331Z,74.08
2022-09-10T14:58:56.232Z,73.65
2022-09-10T14:59:57.301Z,71.95
2022-09-10T15:00:55.383Z,73.47
2022-09-10T15:01:56.201Z,69.85
2022-09-10T15:02:55.374Z,66.68
2022-09-10T15:03:56.264Z,62.92
2022-09-10T15:04:55.375Z,63.82
2022-09-10T15:05:55.691Z,62.66
2022-09-10T15:06:55.288Z,59.64
2022-09-10T15:07:55.295Z,59.09
2022-09-10T15:08:55.252Z,59.88
2022-09-10T15:09:55.256Z,60.50
2022-09-10T15:10:55.236Z,56.85
2022-09-10T15:11:56.009Z,58.14
2022-09-10T15:12:56.170Z,58.20
2022-09-10T15:13:55.234Z,56.57
2022-09-10T15:14:55.189Z,56.84
2022-09-10T15:15:55.209Z,55.85
2022-09-10T15:16:55.139Z,58.81
2022-09-10T15:17:55.130Z,57.33
2022-09-10T15:18:56.100Z,57.14
2022-09-10T15:19:55.153Z,57.75
2022-09-10T15:20:55.910Z,58.84
2022-09-10T15:21:55.070Z,58.48
2022-09-10T15:22:55.082Z,57.18
2022-09-10T15:23:55.203Z,54.99
2022-09-10T15:25:11.466Z,54.47
2022-09-10T15:25:56.034Z,54.20
2022-09-10T15:26:55.197Z,57.18
2022-09-10T15:27:55.014Z,56.69
2022-09-10T15:28:55.135Z,55.83
2022-09-10T15:29:55.816Z,57.31
2022-09-10T15:30:55.839Z,53.91
2022-09-10T15:31:54.976Z,58.15
2022-09-10T15:32:54.936Z,54.90
2022-09-10T15:33:55.688Z,53.15
2022-09-10T15:34:54.916Z,53.57
2022-09-10T15:35:55.758Z,53.67
2022-09-10T15:36:54.928Z,56.92
2022-09-10T15:37:54.949Z,59.69
2022-09-10T15:38:54.919Z,57.68
2022-09-10T15:39:55.672Z,55.58
2022-09-10T15:40:55.779Z,53.74
2022-09-10T15:41:54.822Z,57.09
2022-09-10T15:42:55.596Z,56.95
2022-09-10T15:43:55.754Z,57.35
2022-09-10T15:44:55.654Z,61.40
2022-09-10T15:45:55.555Z,61.83
2022-09-10T15:46:54.807Z,59.83
2022-09-10T15:47:55.713Z,62.60
2022-09-10T15:48:54.695Z,63.60
2022-09-10T15:49:54.694Z,62.73
2022-09-10T15:50:55.588Z,67.67
2022-09-10T15:51:55.494Z,69.59
2022-09-10T15:52:54.864Z,71.22
2022-09-10T15:53:54.646Z,69.86
2022-09-10T15:54:54.695Z,69.32
2022-09-10T15:55:54.683Z,73.32
2022-09-10T15:56:54.629Z,73.35
2022-09-10T15:57:54.617Z,75.45
2022-09-10T15:58:54.658Z,74.08
2022-09-10T15:59:54.570Z,72.13
2022-09-10T16:00:55.399Z,73.22
2022-09-10T16:01:54.611Z,72.66
2022-09-10T16:02:54.559Z,72.39
2022-09-10T16:03:54.539Z,73.89
2022-09-10T16:04:55.279Z,72.92
2022-09-10T16:05:54.481Z,74.56
2022-09-10T16:06:54.451Z,75.00
2022-09-10T16:07:55.245Z,75.90
2022-09-10T16:08:54.495Z,73.53
2022-09-10T16:09:55.412Z,73.13
2022-09-10T16:10:54.411Z,76.07
2022-09-10T16:11:54.398Z,74.87
2022-09-10T16:12:54.383Z,74.20
2022-09-10T16:13:55.175Z,75.31
2022-09-10T16:14:55.334Z,76.54
2022-09-10T16:15:54.368Z,77.05
2022-09-10T16:16:54.343Z,77.95
2022-09-10T16:17:54.323Z,80.06
2022-09-10T16:18:55.726Z,79.69
2022-09-10T16:19:54.275Z,81.00
2022-09-10T16:20:55.277Z,82.45
2022-09-10T16:21:54.256Z,82.14
2022-09-10T16:22:55.079Z,81.84
2022-09-10T16:23:55.236Z,83.75
2022-09-10T16:24:54.556Z,82.89
2022-09-10T16:25:54.509Z,84.39
2022-09-10T16:26:54.166Z,82.78
2022-09-10T16:27:55.108Z,83.99
2022-09-10T16:28:54.520Z,84.19
2022-09-10T16:29:54.173Z,83.29
2022-09-10T16:30:54.244Z,83.99
2022-09-10T16:31:54.981Z,83.69
2022-09-10T16:32:54.880Z,83.18
2022-09-10T16:33:55.369Z,84.29
2022-09-10T16:34:54.061Z,83.59
2022-09-10T16:35:54.085Z,83.69
2022-09-10T16:36:54.217Z,83.59
2022-09-10T16:37:54.012Z,83.59
2022-09-10T16:38:54.275Z,83.59
2022-09-10T16:39:54.065Z,82.98
2022-09-10T16:40:54.884Z,83.49
2022-09-10T16:41:54.504Z,84.29
2022-09-10T16:42:54.953Z,83.69
2022-09-10T16:43:54.856Z,84.19
2022-09-10T16:44:53.922Z,84.89
2022-09-10T16:45:53.893Z,84.69
2022-09-10T16:46:54.825Z,85.19
2022-09-10T16:47:54.727Z,84.59
2022-09-10T16:48:53.869Z,84.80
2022-09-10T16:49:53.858Z,85.50
2022-09-10T16:50:53.839Z,87.10
2022-09-10T16:51:53.829Z,86.80
2022-09-10T16:52:53.807Z,86.10
2022-09-10T16:53:54.660Z,86.50
2022-09-10T16:54:53.789Z,87.91
2022-09-10T16:55:53.785Z,88.11
2022-09-10T16:56:54.527Z,87.91
2022-09-10T16:57:54.550Z,87.81
2022-09-10T16:58:54.551Z,89.72
2022-09-10T16:59:54.521Z,88.31
2022-09-10T17:00:54.493Z,90.32
2022-09-10T17:01:54.613Z,91.17
2022-09-10T17:02:54.602Z,90.46
2022-09-10T17:03:54.058Z,91.57
2022-09-10T17:05:03.045Z,92.57
2022-09-10T17:05:53.735Z,91.77
2022-09-10T17:06:54.870Z,91.06
2022-09-10T17:07:57.994Z,90.36
2022-09-10T17:08:54.284Z,90.56
2022-09-10T17:09:58.718Z,90.00
2022-09-10T17:10:54.783Z,89.60
2022-09-10T17:12:24.847Z,92.92
2022-09-10T17:12:57.897Z,91.61
2022-09-10T17:13:56.520Z,91.21
2022-09-10T17:14:54.324Z,92.92
2022-09-10T17:15:58.128Z,90.81
2022-09-10T17:16:56.708Z,93.42
2022-09-10T17:18:03.609Z,91.61
2022-09-10T17:32:19.221Z,95.87
2022-09-10T17:32:38.858Z,96.78
2022-09-10T17:33:37.144Z,96.68
2022-09-10T17:34:38.892Z,96.68
2022-09-10T17:35:31.191Z,96.78
2022-09-10T17:36:32.103Z,96.68
2022-09-10T17:37:31.203Z,95.87
2022-09-10T17:38:32.190Z,97.08
2022-09-10T17:39:31.215Z,96.62
2022-09-10T17:40:32.641Z,96.52
2022-09-10T17:41:31.881Z,97.53
2022-09-10T17:42:32.042Z,97.03
2022-09-10T17:43:31.129Z,97.63
2022-09-10T17:44:31.284Z,95.92
2022-09-10T17:45:32.015Z,97.23
2022-09-10T17:46:31.931Z,97.63
2022-09-10T17:47:31.829Z,97.03
2022-09-10T17:48:31.975Z,97.47
2022-09-10T17:49:32.976Z,96.67
2022-09-10T17:50:31.008Z,97.27
2022-09-10T17:51:30.998Z,97.88
2022-09-10T17:52:31.847Z,97.78
2022-09-10T17:53:31.847Z,97.67
2022-09-10T17:54:31.917Z,97.17
2022-09-10T17:55:33.745Z,97.58
2022-09-10T17:56:31.046Z,98.18
2022-09-10T17:57:31.878Z,98.18
2022-09-10T17:58:30.912Z,98.18
2022-09-10T17:59:30.949Z,98.79
2022-09-10T18:00:30.951Z,98.73
2022-09-10T18:01:31.044Z,98.93
2022-09-10T18:02:30.980Z,98.93
2022-09-10T18:03:31.835Z,98.93
2022-09-10T18:04:30.931Z,99.54
2022-09-10T18:05:30.853Z,99.64
2022-09-10T18:06:30.806Z,99.24
2022-09-10T18:07:31.687Z,99.33
2022-09-10T18:08:30.837Z,99.38
2022-09-10T18:09:30.802Z,99.28
2022-09-10T18:10:30.773Z,99.79
2022-09-10T18:11:30.820Z,99.68
2022-09-10T18:12:30.864Z,99.79
2022-09-10T18:13:31.689Z,99.79
2022-09-10T18:14:30.785Z,99.99
2022-09-10T18:15:31.433Z,99.99
2022-09-10T18:16:31.593Z,99.99
2022-09-10T18:17:30.730Z,99.88
2022-09-10T18:18:30.695Z,99.99
2022-09-10T18:19:31.636Z,99.84
2022-09-10T18:20:30.634Z,99.99
2022-09-10T18:21:30.628Z,99.99
2022-09-10T18:22:30.566Z,99.99
2022-09-10T18:23:30.628Z,99.99
2022-09-10T18:24:31.336Z,99.99
2022-09-10T18:25:31.585Z,99.99
2022-09-10T18:26:31.405Z,99.99
2022-09-10T18:27:30.548Z,99.99
2022-09-10T18:28:31.927Z,99.99
2022-09-10T18:29:30.523Z,99.99
2022-09-10T18:30:31.268Z,99.99
2022-09-10T18:31:30.668Z,99.99
2022-09-10T18:32:30.458Z,99.99
2022-09-10T18:33:30.555Z,99.99
2022-09-10T18:34:30.558Z,99.99
2022-09-10T18:35:30.438Z,99.99
2022-09-10T18:36:30.523Z,99.99
2022-09-10T18:37:30.415Z,99.99
2022-09-10T18:38:30.420Z,99.99
2022-09-10T18:39:31.202Z,99.99
2022-09-10T18:40:31.081Z,99.99
2022-09-10T18:41:30.315Z,99.99
2022-09-10T18:42:30.307Z,99.99
2022-09-10T18:43:30.302Z,99.99
2022-09-10T18:44:30.331Z,99.99
2022-09-10T18:45:30.533Z,99.99
2022-09-10T18:46:30.356Z,99.99
2022-09-10T18:47:43.966Z,99.99
2022-09-10T18:48:31.219Z,99.99
2022-09-10T18:49:30.250Z,99.99
2022-09-10T18:50:30.202Z,99.99
2022-09-10T18:51:31.042Z,99.99
2022-09-10T18:52:30.202Z,99.99
2022-09-10T18:53:31.113Z,99.99
2022-09-10T18:54:30.512Z,99.99
2022-09-10T18:55:31.005Z,99.99
2022-09-10T18:56:30.126Z,99.99
2022-09-10T18:57:30.117Z,99.99
2022-09-10T18:58:30.147Z,99.99
2022-09-10T18:59:31.058Z,99.99
2022-09-10T19:00:30.082Z,99.99
2022-09-10T19:01:30.158Z,99.99
2022-09-10T19:02:30.134Z,99.99
2022-09-10T19:03:30.000Z,99.99
2022-09-10T19:04:30.016Z,99.99
2022-09-10T19:05:30.587Z,99.99
2022-09-10T19:06:30.056Z,99.99
2022-09-10T19:07:30.505Z,99.99
2022-09-10T19:08:29.935Z,99.99
2022-09-10T19:09:30.925Z,99.99
2022-09-10T19:10:29.923Z,99.99
2022-09-10T19:11:29.881Z,99.99
2022-09-10T19:12:29.870Z,99.99
2022-09-10T19:13:29.831Z,99.99
2022-09-10T19:14:30.700Z,99.99
2022-09-10T19:15:29.798Z,99.99
2022-09-10T19:16:29.807Z,99.99
2022-09-10T19:17:29.935Z,99.99
2022-09-10T19:18:29.802Z,99.99
2022-09-10T19:19:30.673Z,99.99
2022-09-10T19:20:29.733Z,99.99
2022-09-10T19:21:30.473Z,99.99
2022-09-10T19:22:30.643Z,99.99
2022-09-10T19:23:29.686Z,99.99
2022-09-10T19:24:50.851Z,99.99
2022-09-10T19:25:31.706Z,99.99
2022-09-10T19:26:30.232Z,99.99
2022-09-10T19:27:29.605Z,99.99
2022-09-10T19:28:30.569Z,99.99
2022-09-10T19:29:29.597Z,99.99
2022-09-10T19:30:33.762Z,99.99
2022-09-10T19:31:30.627Z,99.99
2022-09-10T19:32:30.041Z,99.99
2022-09-10T19:33:29.676Z,99.99
2022-09-10T19:34:29.738Z,99.99
2022-09-10T19:35:30.448Z,99.99
2022-09-10T19:36:30.332Z,99.99
2022-09-10T19:37:30.486Z,99.99
2022-09-10T19:38:37.475Z,99.99
2022-09-10T19:39:30.491Z,99.99
2022-09-10T19:40:30.212Z,99.99
2022-09-10T19:41:30.341Z,99.99
2022-09-10T19:42:30.259Z,99.99
2022-09-10T19:43:29.376Z,99.99
2022-09-10T19:44:29.493Z,99.99
2022-09-10T19:45:30.213Z,99.99
2022-09-10T19:46:30.156Z,99.99
2022-09-10T19:47:30.283Z,99.99
2022-09-10T19:48:30.182Z,99.99
2022-09-10T19:49:30.082Z,99.99
2022-09-10T19:50:30.252Z,99.99
2022-09-10T19:51:30.144Z,99.99
2022-09-10T19:52:30.054Z,99.99
2022-09-10T19:53:29.239Z,99.99
2022-09-10T19:54:30.115Z,99.99
2022-09-10T19:55:30.035Z,99.99
2022-09-10T19:56:30.186Z,99.99
2022-09-10T19:57:29.197Z,99.99
2022-09-10T19:58:29.259Z,99.99
2022-09-10T19:59:30.154Z,99.99
2022-09-10T20:00:46.401Z,99.99
2022-09-10T20:01:31.019Z,99.99
2022-09-10T20:02:30.156Z,99.99
2022-09-10T20:03:29.087Z,99.99
2022-09-10T20:04:29.145Z,99.99
2022-09-10T20:05:29.868Z,99.99
2022-09-10T20:06:29.988Z,99.99
2022-09-10T20:07:29.375Z,99.99
2022-09-10T20:08:29.119Z,99.99
2022-09-10T20:09:29.960Z,99.99
2022-09-10T20:10:29.012Z,99.99
2022-09-10T20:11:29.252Z,99.99
2022-09-10T20:12:29.936Z,99.99
2022-09-10T20:13:28.991Z,99.99
2022-09-10T20:14:29.732Z,99.99
2022-09-10T20:15:29.099Z,99.99
2022-09-10T20:16:29.148Z,99.99
2022-09-10T20:17:29.700Z,99.99
2022-09-10T20:18:29.215Z,99.99
2022-09-10T20:19:29.775Z,99.99
2022-09-10T20:20:28.903Z,99.99
2022-09-10T20:21:29.837Z,99.99
2022-09-10T20:22:28.852Z,99.99
2022-09-10T20:23:28.824Z,99.99
2022-09-10T20:24:29.543Z,99.99
2022-09-10T20:25:29.703Z,99.99
2022-09-10T20:26:29.604Z,99.99
2022-09-10T20:27:29.547Z,99.99
2022-09-10T20:28:29.024Z,99.99
2022-09-10T20:29:29.575Z,99.99
2022-09-10T20:30:29.756Z,99.99
2022-09-10T20:31:28.788Z,99.99
2022-09-10T20:32:29.543Z,99.99
2022-09-10T20:33:29.705Z,99.99
2022-09-10T20:34:29.607Z,99.99
2022-09-10T20:35:29.513Z,99.99
2022-09-10T20:36:29.415Z,99.99
2022-09-10T20:37:28.824Z,99.99
2022-09-10T20:38:29.506Z,99.99
2022-09-10T20:39:28.557Z,99.99
2022-09-10T20:40:29.542Z,99.99
2022-09-10T20:41:30.760Z,99.99
2022-09-10T20:42:29.346Z,99.99
2022-09-10T20:43:28.607Z,99.99
2022-09-10T20:44:29.411Z,99.99
2022-09-10T20:45:28.539Z,99.99
2022-09-10T20:46:28.588Z,99.99
2022-09-10T20:47:28.482Z,99.99
2022-09-10T20:48:29.287Z,99.99
2022-09-10T20:49:29.448Z,99.99
2022-09-10T20:50:28.445Z,99.99
2022-09-10T20:51:28.501Z,99.99
2022-09-10T20:52:29.158Z,99.99
2022-09-10T20:53:28.436Z,99.99
2022-09-10T20:54:28.369Z,99.99
2022-09-10T20:55:28.360Z,99.99
2022-09-10T20:56:29.166Z,99.99
2022-09-10T20:57:29.226Z,99.99
2022-09-10T20:58:29.095Z,99.99
2022-09-10T20:59:29.274Z,99.99
2022-09-10T21:00:29.163Z,99.99
2022-09-10T21:01:28.633Z,99.99
2022-09-10T21:02:28.352Z,99.99
2022-09-10T21:03:28.235Z,99.99
2022-09-10T21:04:28.327Z,99.99
2022-09-10T21:05:28.487Z,99.99
2022-09-10T21:06:28.257Z,99.99